createdAt,value
2023-03-18T00:00:19.007Z,9.87
2023-03-18T00:02:49.904Z,7.47
2023-03-18T00:05:18.453Z,7.97
2023-03-18T00:07:47.453Z,9.17
2023-03-18T00:10:16.835Z,6.50
2023-03-18T00:12:45.256Z,6.83
2023-03-18T00:15:16.239Z,10.33
2023-03-18T00:17:44.975Z,7.60
2023-03-18T00:20:18.219Z,5.17
2023-03-18T00:22:46.879Z,10.53
2023-03-18T00:25:16.432Z,8.23
2023-03-18T00:27:44.649Z,8.83
2023-03-18T00:30:14.411Z,6.10
2023-03-18T00:32:42.655Z,7.07
2023-03-18T00:35:12.226Z,8.97
2023-03-18T00:37:42.479Z,7.17
2023-03-18T00:40:17.436Z,8.13
2023-03-18T00:42:50.527Z,9.27
2023-03-18T00:45:19.353Z,8.13
2023-03-18T00:47:49.466Z,8.07
2023-03-18T00:50:18.518Z,8.83
2023-03-18T00:52:48.143Z,6.20
2023-03-18T00:55:16.764Z,7.93
2023-03-18T00:57:44.974Z,7.03
2023-03-18T01:00:17.073Z,7.13
2023-03-18T01:03:09.550Z,5.30
2023-03-18T01:05:38.230Z,6.83
2023-03-18T01:08:09.513Z,6.60
2023-03-18T01:10:39.938Z,6.23
2023-03-18T01:13:08.472Z,8.27
2023-03-18T01:15:36.939Z,5.17
2023-03-18T01:18:05.313Z,12.47
2023-03-18T01:20:33.848Z,10.07
2023-03-18T01:23:02.512Z,7.30
2023-03-18T01:25:33.674Z,8.13
2023-03-18T01:28:06.318Z,6.93
2023-03-18T01:30:36.132Z,6.23
2023-03-18T01:33:07.606Z,9.90
2023-03-18T01:35:36.877Z,9.50
2023-03-18T01:38:06.758Z,8.87
2023-03-18T01:40:40.608Z,6.57
2023-03-18T01:43:17.709Z,7.73
2023-03-18T01:45:49.605Z,7.13
2023-03-18T01:48:21.704Z,9.47
2023-03-18T01:50:56.895Z,8.30
2023-03-18T01:53:28.624Z,9.07
2023-03-18T01:55:59.260Z,8.37
2023-03-18T01:58:32.833Z,7.20
2023-03-18T02:01:05.105Z,8.90
2023-03-18T02:03:35.183Z,8.73
2023-03-18T02:06:04.230Z,7.90
2023-03-18T02:08:32.560Z,10.13
2023-03-18T02:11:05.175Z,6.20
2023-03-18T02:13:33.558Z,5.07
2023-03-18T02:16:09.112Z,8.20
2023-03-18T02:18:44.344Z,5.90
2023-03-18T02:21:32.883Z,6.93
2023-03-18T02:24:14.738Z,9.13
2023-03-18T02:26:53.308Z,9.57
2023-03-18T02:29:32.971Z,6.90
2023-03-18T02:32:08.493Z,7.17
2023-03-18T02:34:38.972Z,5.70
2023-03-18T02:37:08.027Z,7.90
2023-03-18T02:39:38.438Z,6.97
2023-03-18T02:42:07.472Z,6.37
2023-03-18T02:44:44.814Z,6.03
2023-03-18T02:47:33.103Z,7.20
2023-03-18T02:50:01.298Z,6.20
2023-03-18T02:52:29.533Z,6.07
2023-03-18T02:54:59.236Z,6.13
2023-03-18T02:57:52.528Z,5.93
2023-03-18T03:00:23.300Z,6.27
2023-03-18T03:02:56.417Z,7.37
2023-03-18T03:05:35.973Z,7.27
2023-03-18T03:08:04.638Z,5.63
2023-03-18T03:10:45.254Z,6.13
2023-03-18T03:13:15.716Z,5.93
2023-03-18T03:15:45.324Z,8.70
2023-03-18T03:18:14.522Z,9.27
2023-03-18T03:20:45.682Z,6.20
2023-03-18T03:23:16.847Z,6.87
2023-03-18T03:25:46.016Z,8.97
2023-03-18T03:28:17.075Z,5.77
2023-03-18T03:30:47.494Z,8.73
2023-03-18T03:33:17.795Z,6.13
2023-03-18T03:35:46.059Z,7.07
2023-03-18T03:38:14.405Z,7.23
2023-03-18T03:40:42.617Z,8.93
2023-03-18T03:43:14.555Z,8.37
2023-03-18T03:45:43.765Z,8.67
2023-03-18T03:48:14.442Z,9.03
2023-03-18T03:50:43.083Z,6.43
2023-03-18T03:53:11.539Z,7.07
2023-03-18T03:55:39.834Z,6.90
2023-03-18T03:58:08.155Z,6.10
2023-03-18T04:00:37.142Z,7.23
2023-03-18T04:03:05.819Z,6.30
2023-03-18T04:05:35.750Z,6.73
2023-03-18T04:08:04.136Z,5.23
2023-03-18T04:10:40.496Z,6.37
2023-03-18T04:13:21.015Z,7.40
2023-03-18T04:15:50.431Z,7.97
2023-03-18T04:18:21.591Z,7.90
2023-03-18T04:20:51.261Z,7.10
2023-03-18T04:23:37.455Z,7.17
2023-03-18T04:26:06.344Z,5.93
2023-03-18T04:28:35.217Z,6.23
2023-03-18T04:31:06.002Z,6.20
2023-03-18T04:33:34.703Z,6.37
2023-03-18T04:36:04.623Z,8.87
2023-03-18T04:38:34.321Z,6.33
2023-03-18T04:41:02.983Z,7.13
2023-03-18T04:43:31.260Z,6.50
2023-03-18T04:45:59.791Z,8.03
2023-03-18T04:48:28.955Z,5.83
2023-03-18T04:50:59.871Z,5.97
2023-03-18T04:53:32.384Z,6.00
2023-03-18T04:56:00.881Z,7.50
2023-03-18T04:58:37.722Z,6.10
2023-03-18T05:01:13.223Z,5.40
2023-03-18T05:03:56.703Z,7.97
2023-03-18T05:06:33.724Z,7.07
2023-03-18T05:09:20.847Z,8.50
2023-03-18T05:12:15.414Z,7.47
2023-03-18T05:14:44.445Z,7.40
2023-03-18T05:17:16.523Z,8.30
2023-03-18T05:19:54.159Z,6.80
2023-03-18T05:22:24.922Z,10.23
2023-03-18T05:25:01.947Z,4.63
2023-03-18T05:27:31.510Z,6.50
2023-03-18T05:30:10.970Z,5.20
2023-03-18T05:32:42.615Z,5.93
2023-03-18T05:35:12.126Z,5.67
2023-03-18T05:37:51.967Z,7.17
2023-03-18T05:40:24.084Z,5.60
2023-03-18T05:43:05.800Z,5.07
2023-03-18T05:45:41.027Z,3.77
2023-03-18T05:48:12.752Z,6.10
2023-03-18T05:50:50.283Z,5.10
2023-03-18T05:53:22.162Z,6.07
2023-03-18T05:55:57.820Z,6.30
2023-03-18T05:58:31.143Z,6.73
2023-03-18T06:01:14.163Z,7.23
2023-03-18T06:03:42.820Z,6.40
2023-03-18T06:06:11.457Z,5.60
2023-03-18T06:08:41.287Z,4.77
2023-03-18T06:11:11.185Z,7.20
2023-03-18T06:13:39.585Z,5.80
2023-03-18T06:16:08.751Z,5.63
2023-03-18T06:18:37.112Z,6.07
2023-03-18T06:21:06.490Z,7.97
2023-03-18T06:23:34.827Z,6.80
2023-03-18T06:26:04.268Z,4.13
2023-03-18T06:28:39.184Z,5.17
2023-03-18T06:31:11.762Z,4.23
2023-03-18T06:33:40.921Z,5.00
2023-03-18T06:36:11.840Z,5.10
2023-03-18T06:38:46.162Z,5.17
2023-03-18T06:41:14.865Z,5.03
2023-03-18T06:43:56.163Z,4.73
2023-03-18T06:46:25.400Z,4.43
2023-03-18T06:48:54.343Z,4.93
2023-03-18T06:51:26.910Z,7.57
2023-03-18T06:53:56.711Z,4.27
2023-03-18T06:56:26.316Z,4.87
2023-03-18T06:59:04.902Z,6.30
2023-03-18T07:04:27.687Z,6.77
2023-03-18T07:06:56.356Z,4.87
2023-03-18T07:09:28.757Z,5.37
2023-03-18T07:12:22.570Z,4.47
2023-03-18T07:14:53.742Z,5.90
2023-03-18T07:17:22.879Z,10.20
2023-03-18T07:19:51.838Z,9.40
2023-03-18T07:22:20.190Z,9.70
2023-03-18T07:24:49.297Z,5.67
2023-03-18T07:27:18.020Z,7.00
2023-03-18T07:29:46.497Z,6.27
2023-03-18T07:32:17.049Z,6.93
2023-03-18T07:34:45.306Z,6.53
2023-03-18T07:37:14.066Z,7.40
2023-03-18T07:39:43.508Z,9.40
2023-03-18T07:42:12.226Z,6.77
2023-03-18T07:44:46.929Z,9.40
2023-03-18T07:47:16.541Z,7.83
2023-03-18T07:49:44.797Z,7.37
2023-03-18T07:52:13.158Z,7.40
2023-03-18T07:54:41.670Z,6.00
2023-03-18T07:57:10.581Z,6.13
2023-03-18T07:59:38.935Z,5.13
2023-03-18T08:02:08.245Z,5.20
2023-03-18T08:04:38.011Z,4.93
2023-03-18T08:07:06.676Z,6.27
2023-03-18T08:09:35.060Z,7.27
2023-03-18T08:12:03.498Z,5.70
2023-03-18T08:14:32.050Z,6.17
2023-03-18T08:17:00.441Z,4.80
2023-03-18T08:19:28.715Z,5.93
2023-03-18T08:21:58.506Z,7.73
2023-03-18T08:24:26.788Z,11.57
2023-03-18T08:26:55.182Z,4.67
2023-03-18T08:29:24.546Z,5.87
2023-03-18T08:31:53.088Z,7.03
2023-03-18T08:34:21.947Z,5.50
2023-03-18T08:36:50.448Z,9.40
2023-03-18T08:39:20.128Z,4.77
2023-03-18T08:41:48.773Z,5.03
2023-03-18T08:44:17.966Z,3.90
2023-03-18T08:46:46.310Z,4.67
2023-03-18T08:49:15.054Z,7.30
2023-03-18T08:51:43.314Z,3.77
2023-03-18T08:54:11.654Z,3.90
2023-03-18T08:56:41.276Z,5.07
2023-03-18T08:59:10.014Z,4.60
2023-03-18T09:01:39.740Z,4.10
2023-03-18T09:04:13.331Z,3.40
2023-03-18T09:09:50.842Z,5.43
2023-03-18T09:12:20.610Z,5.17
2023-03-18T09:14:48.833Z,2.67
2023-03-18T09:17:17.633Z,4.87
2023-03-18T09:19:46.152Z,3.00
2023-03-18T09:22:14.379Z,2.70
2023-03-18T09:24:42.725Z,4.90
2023-03-18T09:27:11.233Z,3.80
2023-03-18T09:29:41.658Z,3.97
2023-03-18T09:32:09.978Z,3.38
2023-03-18T09:34:38.216Z,3.77
2023-03-18T09:37:06.539Z,3.30
2023-03-18T09:39:34.834Z,2.83
2023-03-18T09:42:23.340Z,2.70
2023-03-18T09:44:58.225Z,2.97
2023-03-18T09:47:55.355Z,4.25
2023-03-18T09:50:38.412Z,3.38
2023-03-18T09:53:19.532Z,3.05
2023-03-18T09:55:52.449Z,2.03
2023-03-18T09:58:26.776Z,2.65
2023-03-18T10:01:06.501Z,5.10
2023-03-18T10:03:39.634Z,3.05
2023-03-18T10:06:16.357Z,4.25
2023-03-18T10:08:54.254Z,1.85
2023-03-18T10:11:28.215Z,1.65
2023-03-18T10:14:12.173Z,2.10
2023-03-18T10:16:56.901Z,3.92
2023-03-18T10:19:25.286Z,2.47
2023-03-18T10:22:09.561Z,2.40
2023-03-18T10:24:43.572Z,2.67
2023-03-18T10:27:20.149Z,4.18
2023-03-18T10:29:54.721Z,2.15
2023-03-18T10:32:49.079Z,3.08
2023-03-18T10:35:31.120Z,4.25
2023-03-18T10:38:05.595Z,4.80
2023-03-18T10:40:38.692Z,1.90
2023-03-18T10:43:16.886Z,4.63
2023-03-18T10:45:48.081Z,2.25
2023-03-18T10:48:27.335Z,2.03
2023-03-18T10:51:10.959Z,3.47
2023-03-18T10:53:45.602Z,1.50
2023-03-18T10:56:15.639Z,3.15
2023-03-18T10:58:44.304Z,3.97
2023-03-18T11:01:17.565Z,2.60
2023-03-18T11:03:54.573Z,1.55
2023-03-18T11:06:31.469Z,3.40
2023-03-18T11:09:09.042Z,3.92
2023-03-18T11:11:41.449Z,3.53
2023-03-18T11:14:17.155Z,1.73
2023-03-18T11:16:51.383Z,2.13
2023-03-18T11:19:33.432Z,2.58
2023-03-18T11:22:19.044Z,5.05
2023-03-18T11:24:48.946Z,2.20
2023-03-18T11:27:34.500Z,3.72
2023-03-18T11:30:16.665Z,3.42
2023-03-18T11:32:58.457Z,2.60
2023-03-18T11:35:39.737Z,2.78
2023-03-18T11:38:15.705Z,4.57
2023-03-18T11:40:44.718Z,4.30
2023-03-18T11:43:21.061Z,1.80
2023-03-18T11:45:55.310Z,2.15
2023-03-18T11:48:35.661Z,1.80
2023-03-18T11:51:30.474Z,4.28
2023-03-18T11:54:15.571Z,2.50
2023-03-18T11:56:48.486Z,2.45
2023-03-18T11:59:36.562Z,3.08
2023-03-18T12:02:27.771Z,1.55
2023-03-18T12:05:12.735Z,2.92
2023-03-18T12:08:01.491Z,2.35
2023-03-18T12:10:36.097Z,3.83
2023-03-18T12:13:17.939Z,4.35
2023-03-18T12:15:56.599Z,3.90
2023-03-18T12:18:52.213Z,2.97
2023-03-18T12:21:39.453Z,1.95
2023-03-18T12:24:33.869Z,4.78
2023-03-18T12:27:10.716Z,2.35
2023-03-18T12:30:02.815Z,3.58
2023-03-18T12:32:35.414Z,3.05
2023-03-18T12:35:39.314Z,4.40
2023-03-18T12:38:49.690Z,3.83
2023-03-18T12:41:25.656Z,1.80
2023-03-18T12:44:08.624Z,3.03
2023-03-18T12:46:41.542Z,4.45
2023-03-18T12:49:16.447Z,2.88
2023-03-18T12:51:51.169Z,2.03
2023-03-18T12:54:25.881Z,2.38
2023-03-18T12:57:03.647Z,8.30
2023-03-18T12:59:38.471Z,2.00
2023-03-18T13:02:31.534Z,2.30
2023-03-18T13:05:06.423Z,3.67
2023-03-18T13:07:46.502Z,2.55
2023-03-18T13:10:23.392Z,3.08
2023-03-18T13:12:57.445Z,2.05
2023-03-18T13:15:34.152Z,4.40
2023-03-18T13:18:14.939Z,5.18
2023-03-18T13:20:44.963Z,3.05
2023-03-18T13:23:25.825Z,2.28
2023-03-18T13:26:07.551Z,2.67
2023-03-18T13:28:55.046Z,1.77
2023-03-18T13:31:35.587Z,2.38
2023-03-18T13:34:30.115Z,1.88
2023-03-18T13:37:28.560Z,1.65
2023-03-18T13:40:20.029Z,1.63
2023-03-18T13:42:50.175Z,3.00
2023-03-18T13:45:28.683Z,1.10
2023-03-18T13:47:59.393Z,1.45
2023-03-18T13:50:35.508Z,1.67
2023-03-18T13:53:05.940Z,1.17
2023-03-18T13:55:37.482Z,1.90
2023-03-18T13:58:22.887Z,1.48
2023-03-18T14:01:33.029Z,2.13
2023-03-18T14:04:31.207Z,3.10
2023-03-18T14:07:16.934Z,2.97
2023-03-18T14:09:52.554Z,2.58
2023-03-18T14:12:40.234Z,2.33
2023-03-18T14:15:38.788Z,2.80
2023-03-18T14:18:27.717Z,3.70
2023-03-18T14:21:02.586Z,3.53
2023-03-18T14:23:39.169Z,4.40
2023-03-18T14:26:20.264Z,3.22
2023-03-18T14:28:54.824Z,2.00
2023-03-18T14:31:33.784Z,2.53
2023-03-18T14:34:25.019Z,2.00
2023-03-18T14:37:20.016Z,2.95
2023-03-18T14:39:52.660Z,2.67
2023-03-18T14:42:52.701Z,3.03
2023-03-18T14:45:27.472Z,1.77
2023-03-18T14:47:59.507Z,1.60
2023-03-18T14:50:39.373Z,6.25
2023-03-18T14:53:17.099Z,3.03
2023-03-18T14:55:45.840Z,3.05
2023-03-18T14:58:18.282Z,2.47
2023-03-18T15:00:49.837Z,3.63
2023-03-18T15:03:24.883Z,2.85
2023-03-18T15:06:00.529Z,2.53
2023-03-18T15:08:44.852Z,3.75
2023-03-18T15:11:17.391Z,4.43
2023-03-18T15:13:46.431Z,3.92
2023-03-18T15:16:19.825Z,4.00
2023-03-18T15:18:54.711Z,2.58
2023-03-18T15:21:28.717Z,1.05
2023-03-18T15:24:00.087Z,2.67
2023-03-18T15:26:35.259Z,2.65
2023-03-18T15:29:27.978Z,4.80
2023-03-18T15:32:10.312Z,4.35
2023-03-18T15:34:42.294Z,2.53
2023-03-18T15:37:34.604Z,4.03
2023-03-18T15:40:32.809Z,4.03
2023-03-18T15:43:10.505Z,4.00
2023-03-18T15:45:46.975Z,2.63
2023-03-18T15:48:25.219Z,3.17
2023-03-18T15:50:56.238Z,1.25
2023-03-18T15:53:30.275Z,4.30
2023-03-18T15:56:00.872Z,1.35
2023-03-18T15:58:37.365Z,2.80
2023-03-18T16:01:07.955Z,3.58
2023-03-18T16:03:36.930Z,3.20
2023-03-18T16:06:05.692Z,3.20
2023-03-18T16:08:35.311Z,1.58
2023-03-18T16:11:05.812Z,3.03
2023-03-18T16:13:36.048Z,3.75
2023-03-18T16:16:05.085Z,3.65
2023-03-18T16:18:35.007Z,3.25
2023-03-18T16:21:03.454Z,1.73
2023-03-18T16:23:31.719Z,2.65
2023-03-18T16:26:02.163Z,1.52
2023-03-18T16:28:30.937Z,3.95
2023-03-18T16:30:59.158Z,1.90
2023-03-18T16:33:27.931Z,5.50
2023-03-18T16:35:59.578Z,2.22
2023-03-18T16:38:29.927Z,4.20
2023-03-18T16:41:00.156Z,3.30
2023-03-18T16:43:31.879Z,2.58
2023-03-18T16:46:05.319Z,2.97
2023-03-18T16:48:33.764Z,3.47
2023-03-18T16:51:03.041Z,2.13
2023-03-18T16:53:33.250Z,3.85
2023-03-18T16:56:15.736Z,3.60
2023-03-18T16:58:45.554Z,2.38
2023-03-18T17:01:16.943Z,2.42
2023-03-18T17:03:45.668Z,5.95
2023-03-18T17:09:08.477Z,2.72
2023-03-18T17:11:38.596Z,3.95
2023-03-18T17:14:10.806Z,3.75
2023-03-18T17:16:40.177Z,3.38
2023-03-18T17:19:15.078Z,2.78
2023-03-18T17:21:43.470Z,4.63
2023-03-18T17:24:11.793Z,3.35
2023-03-18T17:26:44.076Z,2.80
2023-03-18T17:29:24.101Z,4.55
2023-03-18T17:31:53.117Z,2.85
2023-03-18T17:34:22.708Z,5.45
2023-03-18T17:36:51.199Z,8.77
2023-03-18T17:39:19.988Z,5.78
2023-03-18T17:41:49.754Z,3.13
2023-03-18T17:44:30.260Z,5.82
2023-03-18T17:47:00.251Z,7.68
2023-03-18T17:49:29.244Z,5.10
2023-03-18T17:51:58.052Z,4.15
2023-03-18T17:54:27.273Z,5.68
2023-03-18T17:57:00.234Z,6.40
2023-03-18T17:59:29.523Z,6.00
2023-03-18T18:01:57.930Z,6.95
2023-03-18T18:04:28.824Z,5.20
2023-03-18T18:06:57.103Z,4.45
2023-03-18T18:09:29.789Z,8.15
2023-03-18T18:12:02.117Z,6.57
2023-03-18T18:14:32.281Z,6.25
2023-03-18T18:17:00.588Z,6.18
2023-03-18T18:19:28.924Z,7.30
2023-03-18T18:21:58.578Z,5.10
2023-03-18T18:24:31.504Z,8.63
2023-03-18T18:27:03.916Z,6.32
2023-03-18T18:29:34.964Z,4.53
2023-03-18T18:32:04.486Z,7.35
2023-03-18T18:34:35.752Z,11.10
2023-03-18T18:37:04.507Z,7.45
2023-03-18T18:39:33.082Z,5.35
2023-03-18T18:42:04.121Z,5.93
2023-03-18T18:44:34.350Z,11.25
2023-03-18T18:47:05.989Z,7.95
2023-03-18T18:49:34.914Z,8.00
2023-03-18T18:52:03.575Z,9.60
2023-03-18T18:54:32.746Z,11.27
2023-03-18T18:57:03.020Z,11.13
2023-03-18T18:59:33.594Z,11.90
2023-03-18T19:02:03.467Z,17.60
2023-03-18T19:04:58.245Z,15.17
2023-03-18T19:07:29.545Z,12.67
2023-03-18T19:09:58.114Z,12.77
2023-03-18T19:12:28.641Z,14.50
2023-03-18T19:14:57.417Z,13.00
2023-03-18T19:17:25.833Z,19.60
2023-03-18T19:19:54.733Z,8.47
2023-03-18T19:22:24.099Z,9.10
2023-03-18T19:24:52.600Z,6.03
2023-03-18T19:27:26.590Z,7.40
2023-03-18T19:29:59.377Z,9.83
2023-03-18T19:32:28.032Z,8.07
2023-03-18T19:34:56.561Z,7.70
2023-03-18T19:37:28.459Z,5.17
2023-03-18T19:39:57.069Z,6.60
2023-03-18T19:42:25.773Z,6.90
2023-03-18T19:44:56.454Z,5.23
2023-03-18T19:47:27.501Z,5.43
2023-03-18T19:49:56.353Z,5.77
2023-03-18T19:52:27.271Z,6.03
2023-03-18T19:54:56.269Z,6.33
2023-03-18T19:57:28.230Z,6.83
2023-03-18T19:59:59.823Z,5.40
2023-03-18T20:02:31.914Z,6.03
2023-03-18T20:05:02.902Z,5.90
2023-03-18T20:07:33.391Z,4.70
2023-03-18T20:10:26.982Z,4.60
2023-03-18T20:12:55.446Z,4.30
2023-03-18T20:15:29.123Z,8.13
2023-03-18T20:18:00.702Z,7.43
2023-03-18T20:20:32.187Z,4.30
2023-03-18T20:23:03.442Z,4.53
2023-03-18T20:25:36.254Z,5.80
2023-03-18T20:28:05.140Z,10.07
2023-03-18T20:30:37.748Z,4.70
2023-03-18T20:33:06.667Z,4.07
2023-03-18T20:35:38.086Z,3.13
2023-03-18T20:38:15.453Z,4.17
2023-03-18T20:40:47.740Z,5.63
2023-03-18T20:43:19.577Z,3.23
2023-03-18T20:45:50.359Z,5.70
2023-03-18T20:48:19.079Z,8.53
2023-03-18T20:50:47.876Z,3.77
2023-03-18T20:53:20.072Z,5.73
2023-03-18T20:55:49.577Z,5.03
2023-03-18T20:58:20.153Z,5.73
2023-03-18T21:00:50.781Z,4.60
2023-03-18T21:03:24.406Z,9.60
2023-03-18T21:05:56.194Z,10.37
2023-03-18T21:08:26.360Z,12.87
2023-03-18T21:11:23.577Z,5.93
2023-03-18T21:13:51.793Z,13.27
2023-03-18T21:16:21.504Z,10.40
2023-03-18T21:18:49.975Z,14.63
2023-03-18T21:21:25.332Z,10.07
2023-03-18T21:23:55.630Z,9.20
2023-03-18T21:26:24.528Z,9.93
2023-03-18T21:28:53.148Z,9.80
2023-03-18T21:31:31.126Z,11.43
2023-03-18T21:33:59.926Z,12.43
2023-03-18T21:36:28.178Z,6.70
2023-03-18T21:38:56.498Z,6.37
2023-03-18T21:41:30.683Z,6.20
2023-03-18T21:43:59.411Z,5.73
2023-03-18T21:46:30.623Z,8.17
2023-03-18T21:48:59.035Z,7.90
2023-03-18T21:51:38.648Z,7.77
2023-03-18T21:54:11.717Z,8.50
2023-03-18T21:56:39.990Z,5.67
2023-03-18T21:59:08.210Z,7.83
2023-03-18T22:01:37.883Z,5.87
2023-03-18T22:04:57.760Z,5.50
2023-03-18T22:07:51.862Z,6.27
2023-03-18T22:10:24.398Z,8.00
2023-03-18T22:12:53.024Z,7.03
2023-03-18T22:15:38.873Z,6.90
2023-03-18T22:18:08.705Z,10.63
2023-03-18T22:20:38.620Z,9.80
2023-03-18T22:23:17.282Z,11.23
2023-03-18T22:25:47.985Z,9.40
2023-03-18T22:28:16.386Z,12.40
2023-03-18T22:30:47.243Z,13.70
2023-03-18T22:33:21.680Z,10.80
2023-03-18T22:35:50.027Z,10.20
2023-03-18T22:38:21.016Z,13.87
2023-03-18T22:40:52.774Z,11.90
2023-03-18T22:43:32.406Z,12.13
2023-03-18T22:46:02.799Z,8.50
2023-03-18T22:48:32.986Z,9.20
2023-03-18T22:51:01.778Z,8.47
2023-03-18T22:53:33.386Z,9.73
2023-03-18T22:56:08.343Z,6.83
2023-03-18T22:58:36.706Z,8.03
2023-03-18T23:01:06.228Z,8.17
2023-03-18T23:03:40.437Z,6.10
2023-03-18T23:06:35.916Z,6.27
2023-03-18T23:09:05.125Z,6.83
2023-03-18T23:11:35.405Z,7.10
2023-03-18T23:14:04.946Z,7.67
2023-03-18T23:16:33.238Z,12.10
2023-03-18T23:19:03.257Z,7.63
2023-03-18T23:21:31.893Z,6.83
2023-03-18T23:24:00.202Z,6.97
2023-03-18T23:26:28.486Z,6.43
2023-03-18T23:28:57.087Z,8.83
2023-03-18T23:31:25.372Z,5.97
2023-03-18T23:33:53.656Z,7.07
2023-03-18T23:36:23.923Z,7.40
2023-03-18T23:38:52.280Z,6.97
2023-03-18T23:41:20.472Z,8.47
2023-03-18T23:43:48.741Z,7.73
2023-03-18T23:46:16.966Z,6.77
2023-03-18T23:48:45.350Z,9.10
2023-03-18T23:51:13.625Z,7.77
2023-03-18T23:53:43.185Z,11.53
2023-03-18T23:56:11.781Z,7.20
2023-03-18T23:58:40.009Z,7.13
